createdAt,value
2017-08-21T00:01:08.488Z,96.10
2017-08-21T00:03:37.536Z,96.70
2017-08-21T00:06:06.211Z,97.20
2017-08-21T00:08:34.560Z,96.80
2017-08-21T00:11:02.847Z,96.80
2017-08-21T00:13:32.648Z,96.80
2017-08-21T00:16:00.979Z,97.20
2017-08-21T00:21:01.229Z,97.30
2017-08-21T00:28:28.618Z,97.50
2017-08-21T00:30:56.984Z,97.50
2017-08-21T00:33:25.280Z,97.30
2017-08-21T00:35:53.556Z,97.40
2017-08-21T00:38:21.903Z,97.10
2017-08-21T00:40:50.199Z,97.00
2017-08-21T00:43:18.480Z,97.00
2017-08-21T00:45:46.845Z,96.50
2017-08-21T00:48:15.900Z,96.70
2017-08-21T00:50:44.201Z,96.80
2017-08-21T00:53:12.831Z,96.60
2017-08-21T00:55:41.120Z,97.10
2017-08-21T00:58:10.921Z,96.90
2017-08-21T01:00:39.502Z,97.00
2017-08-21T01:03:07.811Z,96.60
2017-08-21T01:05:36.514Z,96.80
2017-08-21T01:08:04.939Z,96.80
2017-08-21T01:10:34.004Z,97.50
2017-08-21T01:13:02.679Z,97.60
2017-08-21T01:15:31.042Z,97.90
2017-08-21T01:17:59.332Z,97.70
2017-08-21T01:20:27.620Z,97.90
2017-08-21T01:22:55.960Z,97.90
2017-08-21T01:25:25.372Z,98.00
2017-08-21T01:27:53.644Z,98.20
2017-08-21T01:30:21.975Z,98.40
2017-08-21T01:32:50.275Z,98.40
2017-08-21T01:35:18.551Z,98.20
2017-08-21T01:37:48.014Z,98.30
2017-08-21T01:40:16.702Z,97.70
2017-08-21T01:42:44.988Z,98.30
2017-08-21T01:45:14.497Z,98.40
2017-08-21T01:50:12.312Z,98.10
2017-08-21T01:52:40.669Z,98.20
2017-08-21T01:55:08.939Z,98.20
2017-08-21T01:57:38.756Z,98.80
2017-08-21T02:00:07.947Z,98.50
2017-08-21T02:05:05.740Z,99.10
2017-08-21T02:07:34.083Z,99.10
2017-08-21T02:10:02.372Z,99.10
2017-08-21T02:12:30.656Z,99.40
2017-08-21T02:15:00.122Z,99.70
2017-08-21T02:17:28.411Z,99.70
2017-08-21T02:19:56.707Z,99.90
2017-08-21T02:22:26.558Z,99.80
2017-08-21T02:24:54.840Z,99.90
2017-08-21T02:27:24.254Z,99.70
2017-08-21T02:29:53.501Z,99.90
2017-08-21T02:32:22.180Z,99.90
2017-08-21T02:34:50.454Z,99.90
2017-08-21T02:37:18.784Z,99.90
2017-08-21T02:42:16.867Z,99.90
2017-08-21T02:44:45.247Z,99.90
2017-08-21T02:47:13.526Z,99.90
2017-08-21T02:49:41.830Z,99.90
2017-08-21T02:52:10.287Z,99.90
2017-08-21T02:57:08.063Z,99.90
2017-08-21T02:59:36.390Z,99.90
2017-08-21T03:02:04.667Z,99.90
2017-08-21T03:04:32.946Z,99.90
2017-08-21T03:09:31.186Z,99.90
2017-08-21T03:14:29.085Z,99.90
2017-08-21T03:16:58.863Z,99.90
2017-08-21T03:19:28.275Z,99.90
2017-08-21T03:21:56.664Z,99.90
2017-08-21T03:24:24.939Z,99.90
2017-08-21T03:26:53.219Z,99.90
2017-08-21T03:29:21.550Z,99.90
2017-08-21T03:34:19.339Z,99.90
2017-08-21T03:36:47.716Z,99.90
2017-08-21T03:39:16.011Z,99.90
2017-08-21T03:41:44.318Z,99.90
2017-08-21T03:44:12.671Z,99.90
2017-08-21T03:46:40.995Z,99.90
2017-08-21T03:51:38.850Z,99.90
2017-08-21T03:54:07.135Z,99.90
2017-08-21T03:56:36.177Z,99.90
2017-08-21T04:04:04.352Z,99.90
2017-08-21T04:06:32.691Z,99.90
2017-08-21T04:09:00.979Z,99.90
2017-08-21T04:11:29.257Z,99.90
2017-08-21T04:13:57.590Z,99.90
2017-08-21T04:16:25.864Z,99.90
2017-08-21T04:18:54.143Z,99.90
2017-08-21T04:21:23.623Z,99.90
2017-08-21T04:23:51.908Z,99.90
2017-08-21T04:26:20.188Z,99.90
2017-08-21T04:31:18.794Z,99.90
2017-08-21T04:33:47.854Z,99.90
2017-08-21T04:38:46.123Z,99.90
2017-08-21T04:41:14.415Z,99.90
2017-08-21T04:43:42.751Z,99.90
2017-08-21T04:46:11.068Z,99.90
2017-08-21T04:48:39.355Z,99.90
2017-08-21T04:51:08.799Z,99.90
2017-08-21T04:53:37.071Z,99.90
2017-08-21T04:56:05.742Z,99.90
2017-08-21T04:58:34.079Z,99.90
2017-08-21T05:01:03.497Z,99.90
2017-08-21T05:03:31.814Z,99.90
2017-08-21T05:08:30.035Z,99.90
2017-08-21T05:10:58.318Z,99.90
2017-08-21T05:13:27.791Z,99.90
2017-08-21T05:15:57.575Z,99.90
2017-08-21T05:18:25.855Z,99.90
2017-08-21T05:20:54.180Z,99.90
2017-08-21T05:23:22.452Z,99.90
2017-08-21T05:25:50.723Z,99.90
2017-08-21T05:28:19.073Z,99.90
2017-08-21T05:30:48.119Z,99.90
2017-08-21T05:33:16.407Z,99.90
2017-08-21T05:35:44.751Z,99.90
2017-08-21T05:38:13.061Z,99.90
2017-08-21T05:40:41.392Z,99.90
2017-08-21T05:43:09.723Z,99.90
2017-08-21T05:45:37.998Z,99.90
2017-08-21T05:48:06.281Z,99.90
2017-08-21T05:50:36.147Z,99.90
2017-08-21T05:53:04.431Z,99.90
2017-08-21T05:55:32.728Z,99.90
2017-08-21T05:58:01.460Z,99.90
2017-08-21T06:00:29.742Z,99.90
2017-08-21T06:02:58.022Z,99.90
2017-08-21T06:05:27.031Z,99.90
2017-08-21T06:07:56.079Z,99.90
2017-08-21T06:10:24.351Z,99.90
2017-08-21T06:12:52.673Z,99.90
2017-08-21T06:15:20.954Z,99.90
2017-08-21T06:17:49.244Z,99.90
2017-08-21T06:20:17.715Z,99.90
2017-08-21T06:22:47.162Z,99.90
2017-08-21T06:25:15.487Z,99.90
2017-08-21T06:27:43.855Z,99.90
2017-08-21T06:30:12.153Z,99.90
2017-08-21T06:32:41.207Z,99.90
2017-08-21T06:37:39.428Z,99.80
2017-08-21T06:40:08.480Z,99.70
2017-08-21T06:42:36.832Z,99.10
2017-08-21T06:45:05.892Z,98.80
2017-08-21T06:47:34.166Z,98.00
2017-08-21T06:50:02.509Z,97.80
2017-08-21T06:52:30.780Z,97.10
2017-08-21T06:54:59.056Z,96.80
2017-08-21T06:57:27.410Z,96.90
2017-08-21T06:59:56.450Z,97.10
2017-08-21T07:02:24.726Z,95.80
2017-08-21T07:04:53.046Z,95.50
2017-08-21T07:07:21.323Z,94.40
2017-08-21T07:09:49.595Z,94.30
2017-08-21T07:12:19.051Z,94.70
2017-08-21T07:17:16.870Z,94.70
2017-08-21T07:19:45.248Z,93.90
2017-08-21T07:24:45.466Z,93.20
2017-08-21T07:27:13.809Z,93.00
2017-08-21T07:29:42.107Z,92.90
2017-08-21T07:32:10.416Z,92.40
2017-08-21T07:34:38.723Z,92.80
2017-08-21T07:37:07.034Z,92.50
2017-08-21T07:39:36.109Z,92.10
2017-08-21T07:42:04.435Z,92.20
2017-08-21T07:44:32.721Z,91.80
2017-08-21T07:47:01.014Z,91.20
2017-08-21T07:49:29.338Z,90.10
2017-08-21T07:51:57.610Z,89.60
2017-08-21T07:54:27.395Z,89.30
2017-08-21T07:56:55.907Z,90.40
2017-08-21T07:59:24.195Z,89.10
2017-08-21T08:01:53.244Z,86.80
2017-08-21T08:04:21.567Z,86.30
2017-08-21T08:06:49.859Z,85.80
2017-08-21T08:09:19.639Z,83.20
2017-08-21T08:11:47.980Z,82.40
2017-08-21T08:14:16.268Z,82.30
2017-08-21T08:16:44.561Z,82.70
2017-08-21T08:19:12.941Z,83.30
2017-08-21T08:21:41.292Z,84.00
2017-08-21T08:24:10.339Z,86.30
2017-08-21T08:26:38.673Z,86.40
2017-08-21T08:29:06.949Z,82.40
2017-08-21T08:34:05.215Z,84.30
2017-08-21T08:36:33.490Z,82.30
2017-08-21T08:39:01.776Z,82.10
2017-08-21T08:41:30.869Z,83.50
2017-08-21T08:43:59.142Z,81.90
2017-08-21T08:46:27.424Z,79.30
2017-08-21T08:48:57.254Z,79.60
2017-08-21T08:51:25.531Z,79.20
2017-08-21T08:53:53.811Z,78.70
2017-08-21T08:56:22.147Z,79.80
2017-08-21T08:58:50.447Z,79.60
2017-08-21T09:01:19.902Z,77.30
2017-08-21T09:03:48.268Z,76.60
2017-08-21T09:06:16.580Z,77.50
2017-08-21T09:08:44.899Z,80.20
2017-08-21T09:11:13.318Z,79.80
2017-08-21T09:13:43.127Z,78.20
2017-08-21T09:16:11.411Z,75.80
2017-08-21T09:21:09.678Z,74.60
2017-08-21T09:23:37.968Z,76.20
2017-08-21T09:26:07.061Z,77.00
2017-08-21T09:28:35.344Z,75.10
2017-08-21T09:31:05.119Z,73.60
2017-08-21T09:33:33.447Z,73.60
2017-08-21T09:36:01.728Z,69.90
2017-08-21T09:38:30.005Z,70.40
2017-08-21T09:40:58.739Z,70.40
2017-08-21T09:43:27.787Z,70.20
2017-08-21T09:45:56.068Z,65.30
2017-08-21T09:48:24.398Z,67.20
2017-08-21T09:50:52.675Z,64.90
2017-08-21T09:53:20.951Z,65.50
2017-08-21T09:55:50.796Z,61.90
2017-08-21T09:58:19.070Z,63.60
2017-08-21T10:00:47.354Z,62.50
2017-08-21T10:03:15.703Z,65.80
2017-08-21T10:05:44.041Z,59.00
2017-08-21T10:08:12.739Z,60.60
2017-08-21T10:10:41.049Z,61.90
2017-08-21T10:13:09.326Z,65.20
2017-08-21T10:15:37.599Z,55.80
2017-08-21T10:18:05.964Z,58.30
2017-08-21T10:20:35.751Z,58.00
2017-08-21T10:23:04.023Z,55.50
2017-08-21T10:25:32.350Z,55.00
2017-08-21T10:28:00.630Z,57.90
2017-08-21T10:30:30.051Z,58.50
2017-08-21T10:32:58.375Z,57.60
2017-08-21T10:35:26.659Z,58.70
2017-08-21T10:37:54.938Z,56.80
2017-08-21T10:40:23.350Z,58.30
2017-08-21T10:42:52.396Z,62.50
2017-08-21T10:45:21.434Z,63.00
2017-08-21T10:47:49.795Z,59.90
2017-08-21T10:50:19.492Z,60.90
2017-08-21T10:52:48.989Z,57.70
2017-08-21T10:55:17.355Z,57.60
2017-08-21T10:57:45.652Z,62.70
2017-08-21T11:00:13.975Z,62.20
2017-08-21T11:02:43.455Z,60.90
2017-08-21T11:05:11.759Z,64.70
2017-08-21T11:07:40.042Z,64.80
2017-08-21T11:10:09.895Z,64.10
2017-08-21T11:12:38.186Z,61.50
2017-08-21T11:15:06.463Z,64.80
2017-08-21T11:17:34.771Z,65.10
2017-08-21T11:20:03.059Z,63.50
2017-08-21T11:22:31.330Z,65.10
2017-08-21T11:25:01.163Z,68.10
2017-08-21T11:27:29.439Z,62.50
2017-08-21T11:32:28.783Z,58.20
2017-08-21T11:34:57.057Z,59.60
2017-08-21T11:37:25.352Z,61.10
2017-08-21T11:39:53.675Z,60.80
2017-08-21T11:42:23.095Z,62.20
2017-08-21T11:44:51.370Z,63.80
2017-08-21T11:47:19.746Z,63.70
2017-08-21T11:49:48.108Z,64.10
2017-08-21T11:52:16.397Z,63.40
2017-08-21T11:54:46.288Z,63.20
2017-08-21T11:57:14.617Z,62.30
2017-08-21T11:59:42.939Z,58.50
2017-08-21T12:02:12.869Z,57.50
2017-08-21T12:04:41.937Z,57.70
2017-08-21T12:07:10.982Z,59.10
2017-08-21T12:09:39.347Z,57.10
2017-08-21T12:12:08.391Z,57.40
2017-08-21T12:14:36.659Z,57.40
2017-08-21T12:17:05.750Z,57.10
2017-08-21T12:19:34.796Z,59.00
2017-08-21T12:22:03.075Z,59.10
2017-08-21T12:24:31.418Z,58.30
2017-08-21T12:26:59.690Z,59.10
2017-08-21T12:29:27.975Z,57.80
2017-08-21T12:31:57.423Z,58.90
2017-08-21T12:34:25.691Z,59.60
2017-08-21T12:36:53.984Z,57.70
2017-08-21T12:39:22.316Z,56.80
2017-08-21T12:41:50.622Z,56.00
2017-08-21T12:46:48.907Z,55.60
2017-08-21T12:49:17.229Z,55.80
2017-08-21T12:51:45.590Z,58.20
2017-08-21T12:56:44.273Z,54.50
2017-08-21T12:59:13.003Z,55.00
2017-08-21T13:01:41.377Z,53.50
2017-08-21T13:04:10.795Z,52.50
2017-08-21T13:06:39.102Z,52.00
2017-08-21T13:09:07.812Z,49.70
2017-08-21T13:11:36.090Z,50.90
2017-08-21T13:14:05.537Z,49.10
2017-08-21T13:16:33.866Z,50.40
2017-08-21T13:19:02.131Z,51.80
2017-08-21T13:21:30.413Z,50.40
2017-08-21T13:24:00.243Z,51.20
2017-08-21T13:31:27.981Z,48.80
2017-08-21T13:33:56.251Z,48.50
2017-08-21T13:38:54.486Z,48.50
2017-08-21T13:43:52.284Z,51.80
2017-08-21T13:46:20.667Z,53.00
2017-08-21T13:48:48.979Z,51.60
2017-08-21T13:51:17.359Z,56.80
2017-08-21T13:53:45.732Z,53.90
2017-08-21T13:56:15.403Z,51.90
2017-08-21T13:58:43.777Z,54.50
2017-08-21T14:01:12.214Z,53.30
2017-08-21T14:03:40.511Z,53.90
2017-08-21T14:06:08.788Z,50.80
2017-08-21T14:08:37.543Z,51.60
2017-08-21T14:11:06.590Z,55.60
2017-08-21T14:13:34.863Z,55.10
2017-08-21T14:16:03.967Z,56.30
2017-08-21T14:18:32.239Z,56.30
2017-08-21T14:21:00.517Z,54.30
2017-08-21T14:23:28.869Z,56.90
2017-08-21T14:25:58.283Z,57.30
2017-08-21T14:28:26.565Z,58.50
2017-08-21T14:30:54.899Z,58.00
2017-08-21T14:33:23.166Z,55.90
2017-08-21T14:35:51.465Z,54.60
2017-08-21T14:38:19.796Z,51.90
2017-08-21T14:40:48.090Z,55.00
2017-08-21T14:43:17.901Z,58.90
2017-08-21T14:48:17.422Z,55.00
2017-08-21T14:50:46.483Z,54.00
2017-08-21T14:53:14.853Z,58.30
2017-08-21T14:55:43.154Z,56.00
2017-08-21T14:58:11.848Z,55.50
2017-08-21T15:00:41.932Z,56.80
2017-08-21T15:03:10.226Z,59.10
2017-08-21T15:05:38.524Z,56.60
2017-08-21T15:08:06.848Z,56.00
2017-08-21T15:10:35.124Z,56.00
2017-08-21T15:13:03.394Z,53.60
2017-08-21T15:15:32.887Z,54.10
2017-08-21T15:18:01.169Z,54.10
2017-08-21T15:20:29.443Z,58.00
2017-08-21T15:25:28.051Z,54.00
2017-08-21T15:27:57.831Z,53.00
2017-08-21T15:30:26.184Z,53.00
2017-08-21T15:32:55.226Z,57.70
2017-08-21T15:35:23.503Z,57.70
2017-08-21T15:40:22.115Z,57.70
2017-08-21T15:42:51.894Z,55.60
2017-08-21T15:45:20.230Z,55.10
2017-08-21T15:47:48.507Z,53.70
2017-08-21T15:50:16.801Z,54.30
2017-08-21T15:52:45.146Z,55.20
2017-08-21T15:57:42.976Z,58.60
2017-08-21T16:00:12.143Z,56.40
2017-08-21T16:02:40.814Z,57.30
2017-08-21T16:05:09.496Z,59.50
2017-08-21T16:07:37.815Z,59.20
2017-08-21T16:10:06.094Z,58.70
2017-08-21T16:12:35.134Z,58.30
2017-08-21T16:15:04.239Z,60.30
2017-08-21T16:17:32.528Z,58.20
2017-08-21T16:20:01.582Z,58.60
2017-08-21T16:22:29.907Z,58.80
2017-08-21T16:24:58.182Z,59.70
2017-08-21T16:27:26.450Z,58.30
2017-08-21T16:29:54.766Z,57.90
2017-08-21T16:32:24.180Z,59.30
2017-08-21T16:34:52.458Z,59.70
2017-08-21T16:39:50.706Z,61.90
2017-08-21T16:42:18.990Z,60.30
2017-08-21T16:44:47.363Z,61.50
2017-08-21T16:47:15.648Z,61.90
2017-08-21T16:49:43.939Z,62.90
2017-08-21T16:52:13.045Z,62.10
2017-08-21T16:57:11.237Z,63.70
2017-08-21T16:59:40.938Z,63.80
2017-08-21T17:02:09.211Z,63.70
2017-08-21T17:04:37.495Z,63.60
2017-08-21T17:07:05.823Z,63.00
2017-08-21T17:09:35.611Z,64.20
2017-08-21T17:12:03.887Z,62.70
2017-08-21T17:14:32.641Z,61.80
2017-08-21T17:17:00.931Z,63.50
2017-08-21T17:19:29.211Z,65.60
2017-08-21T17:21:58.676Z,66.70
2017-08-21T17:24:26.948Z,68.00
2017-08-21T17:26:54.988Z,69.10
2017-08-21T17:29:23.066Z,68.80
2017-08-21T17:31:51.339Z,69.80
2017-08-21T17:34:19.614Z,69.60
2017-08-21T17:36:48.231Z,72.60
2017-08-21T17:39:16.920Z,72.00
2017-08-21T17:44:15.560Z,73.90
2017-08-21T17:46:45.575Z,74.20
2017-08-21T17:49:13.887Z,76.30
2017-08-21T17:51:42.713Z,75.50
2017-08-21T17:54:11.770Z,76.60
2017-08-21T17:56:40.051Z,78.30
2017-08-21T17:59:08.812Z,79.10
2017-08-21T18:01:38.223Z,78.70
2017-08-21T18:04:06.487Z,80.50
2017-08-21T18:06:34.822Z,81.10
2017-08-21T18:09:03.131Z,82.70
2017-08-21T18:11:31.422Z,82.30
2017-08-21T18:16:29.698Z,83.20
2017-08-21T18:18:58.748Z,83.20
2017-08-21T18:21:27.095Z,82.00
2017-08-21T18:23:55.366Z,83.00
2017-08-21T18:26:23.642Z,82.80
2017-08-21T18:28:53.491Z,83.30
2017-08-21T18:31:23.284Z,83.40
2017-08-21T18:33:51.946Z,84.50
2017-08-21T18:36:20.308Z,83.30
2017-08-21T18:38:48.613Z,84.00
2017-08-21T18:41:18.619Z,87.00
2017-08-21T18:43:48.123Z,88.70
2017-08-21T18:46:16.862Z,88.70
2017-08-21T18:51:15.178Z,86.40
2017-08-21T18:53:43.498Z,88.10
2017-08-21T18:56:12.597Z,88.50
2017-08-21T18:58:41.708Z,88.40
2017-08-21T19:03:39.892Z,87.20
2017-08-21T19:06:09.002Z,87.50
2017-08-21T19:08:37.284Z,86.90
2017-08-21T19:11:05.559Z,90.00
2017-08-21T19:13:33.903Z,90.40
2017-08-21T19:16:02.187Z,89.30
2017-08-21T19:18:30.467Z,88.70
2017-08-21T19:23:28.296Z,90.50
2017-08-21T19:25:56.578Z,90.90
2017-08-21T19:28:24.995Z,91.10
2017-08-21T19:30:54.778Z,91.00
2017-08-21T19:33:23.059Z,90.00
2017-08-21T19:35:51.411Z,90.30
2017-08-21T19:38:19.704Z,90.90
2017-08-21T19:43:17.571Z,90.40
2017-08-21T19:45:45.864Z,90.40
2017-08-21T19:48:14.940Z,90.50
2017-08-21T19:50:43.309Z,91.00
2017-08-21T19:53:11.634Z,90.90
2017-08-21T19:55:39.911Z,91.20
2017-08-21T20:00:37.792Z,91.70
2017-08-21T20:03:07.663Z,91.40
2017-08-21T20:05:36.016Z,91.30
2017-08-21T20:10:34.196Z,91.90
2017-08-21T20:13:02.511Z,92.40
2017-08-21T20:15:30.786Z,92.70
2017-08-21T20:20:29.413Z,92.50
2017-08-21T20:22:57.686Z,92.60
2017-08-21T20:25:27.466Z,93.10
2017-08-21T20:27:55.790Z,93.40
2017-08-21T20:35:23.154Z,94.20
2017-08-21T20:37:51.459Z,93.80
2017-08-21T20:40:21.295Z,93.70
2017-08-21T20:42:49.615Z,94.10
2017-08-21T20:45:17.902Z,94.00
2017-08-21T20:47:46.232Z,93.00
2017-08-21T20:50:14.553Z,93.60
2017-08-21T20:52:44.341Z,93.20
2017-08-21T20:55:12.659Z,93.40
2017-08-21T20:57:40.983Z,93.30
2017-08-21T21:00:10.764Z,93.70
2017-08-21T21:02:39.070Z,94.40
2017-08-21T21:05:07.386Z,94.10
2017-08-21T21:07:36.431Z,94.60
2017-08-21T21:10:05.151Z,94.70
2017-08-21T21:12:33.471Z,95.30
2017-08-21T21:15:02.889Z,95.20
2017-08-21T21:17:31.615Z,95.40
2017-08-21T21:20:01.092Z,95.40
2017-08-21T21:22:29.363Z,95.60
2017-08-21T21:24:57.667Z,95.40
2017-08-21T21:27:25.982Z,95.20
2017-08-21T21:29:54.250Z,95.20
2017-08-21T21:32:22.556Z,95.30
2017-08-21T21:34:51.999Z,96.10
2017-08-21T21:37:20.270Z,95.80
2017-08-21T21:39:48.550Z,95.40
2017-08-21T21:42:16.882Z,95.30
2017-08-21T21:44:45.965Z,95.20
2017-08-21T21:52:14.581Z,96.00
2017-08-21T21:54:42.876Z,95.90
2017-08-21T21:57:11.232Z,96.10
2017-08-21T21:59:40.646Z,96.20
2017-08-21T22:02:08.921Z,96.70
2017-08-21T22:04:37.253Z,96.10
2017-08-21T22:07:05.526Z,96.40
2017-08-21T22:09:33.799Z,96.50
2017-08-21T22:12:03.059Z,96.90
2017-08-21T22:17:02.006Z,97.10
2017-08-21T22:19:30.335Z,96.80
2017-08-21T22:21:58.611Z,96.70
2017-08-21T22:29:27.071Z,96.30
2017-08-21T22:31:55.346Z,95.80
2017-08-21T22:34:24.443Z,95.80
2017-08-21T22:39:52.632Z,95.80
2017-08-21T22:42:20.906Z,95.80
2017-08-21T22:44:49.184Z,96.30
2017-08-21T22:47:19.035Z,95.70
2017-08-21T22:52:17.226Z,95.80
2017-08-21T22:54:45.572Z,95.70
2017-08-21T22:59:44.135Z,96.00
2017-08-21T23:02:24.034Z,95.20
2017-08-21T23:04:58.607Z,95.00
2017-08-21T23:07:27.711Z,95.10
2017-08-21T23:09:55.982Z,95.90
2017-08-21T23:12:26.898Z,95.00
2017-08-21T23:14:55.227Z,94.90
2017-08-21T23:17:23.494Z,94.70
2017-08-21T23:22:22.442Z,95.20
2017-08-21T23:27:20.602Z,95.40
2017-08-21T23:29:48.934Z,95.30
2017-08-21T23:32:17.217Z,95.50
2017-08-21T23:34:45.508Z,95.70
2017-08-21T23:37:13.839Z,95.80
2017-08-21T23:39:42.131Z,95.90
2017-08-21T23:42:10.403Z,95.90
2017-08-21T23:44:38.739Z,96.20
2017-08-21T23:47:08.514Z,96.30
2017-08-21T23:49:36.786Z,96.60
2017-08-21T23:54:35.017Z,96.20
2017-08-21T23:57:03.300Z,96.30
2017-08-21T23:59:32.038Z,96.30
